Time;durP1;ratioP1;P1;durP2;ratioP2;P2;SDS_P1;SDS_P2;PMS_P1;PMS_P2;Temp;Humidity;BMP_temperature;BMP_pressure;BME280_temperature;BME280_humidity;BME280_pressure;Samples;Min_cycle;Max_cycle;Signal;HPM_P1;HPM_P2
2024/01/12 00:01:45;;;;;;;34.33;16.67;;;2.50;95.90;;;;;;5025711;28;20029;-84
2024/01/12 00:04:11;;;;;;;34.87;16.70;;;2.50;95.90;;;;;;5025747;28;20095;-85
2024/01/12 00:06:37;;;;;;;35.20;16.43;;;2.50;95.90;;;;;;5026731;28;20029;-84
2024/01/12 00:09:04;;;;;;;35.40;17.17;;;2.50;96.00;;;;;;5024829;28;20022;-85
2024/01/12 00:11:30;;;;;;;38.07;16.00;;;2.50;96.00;;;;;;5026885;28;20064;-85
2024/01/12 00:13:55;;;;;;;36.97;17.13;;;2.50;96.10;;;;;;5024571;28;20030;-85
2024/01/12 00:16:21;;;;;;;37.77;16.83;;;2.50;96.10;;;;;;5026753;28;20022;-85
2024/01/12 00:18:47;;;;;;;34.77;15.60;;;2.50;96.10;;;;;;5025537;28;20072;-85
2024/01/12 00:21:13;;;;;;;35.30;16.67;;;2.50;96.20;;;;;;5025417;28;20033;-85
2024/01/12 00:23:38;;;;;;;35.80;17.27;;;2.50;96.30;;;;;;5026596;28;20062;-86
2024/01/12 00:26:04;;;;;;;39.33;15.90;;;2.50;96.20;;;;;;5024506;28;20026;-85
2024/01/12 00:28:33;;;;;;;32.97;14.60;;;2.50;96.20;;;;;;5026318;28;20433;-85
2024/01/12 00:30:58;;;;;;;36.10;16.33;;;2.50;96.20;;;;;;5024250;28;20045;-85
2024/01/12 00:33:24;;;;;;;33.53;16.37;;;2.50;96.30;;;;;;5026045;28;20029;-85
2024/01/12 00:35:49;;;;;;;32.73;16.13;;;2.50;96.30;;;;;;5042574;28;20029;-86
2024/01/12 00:38:15;;;;;;;34.97;16.93;;;2.60;96.40;;;;;;5025649;28;20026;-86
2024/01/12 00:40:41;;;;;;;35.03;16.40;;;2.60;96.40;;;;;;5026195;28;20032;-86
2024/01/12 00:43:07;;;;;;;37.23;17.57;;;2.60;96.40;;;;;;5023398;28;20029;-86
2024/01/12 00:45:33;;;;;;;32.27;15.93;;;2.60;96.40;;;;;;5026846;28;20021;-87
2024/01/12 00:47:59;;;;;;;38.17;17.17;;;2.70;96.40;;;;;;5042681;28;20076;-87
2024/01/12 00:50:25;;;;;;;36.10;16.93;;;2.50;96.40;;;;;;5028122;28;20014;-86
2024/01/12 00:52:51;;;;;;;37.13;17.07;;;2.60;96.40;;;;;;5043870;28;20381;-87
2024/01/12 00:55:16;;;;;;;35.20;16.10;;;2.60;96.40;;;;;;5027359;28;20459;-87
2024/01/12 00:57:42;;;;;;;35.77;16.47;;;2.50;96.40;;;;;;5025228;28;20030;-87
2024/01/12 01:00:09;;;;;;;38.40;17.60;;;2.60;96.40;;;;;;5024507;28;20026;-88
2024/01/12 01:02:35;;;;;;;36.27;17.63;;;2.50;96.40;;;;;;5026292;28;20049;-88
2024/01/12 01:05:01;;;;;;;34.93;17.53;;;2.50;96.40;;;;;;5024003;28;20032;-88
2024/01/12 01:07:28;;;;;;;35.10;16.33;;;2.50;96.40;;;;;;5025569;28;20049;-87
2024/01/12 01:09:54;;;;;;;38.17;17.67;;;2.50;96.40;;;;;;5024244;28;20536;-88
2024/01/12 01:12:19;;;;;;;38.23;16.53;;;2.50;96.50;;;;;;5025130;28;20029;-87
2024/01/12 01:14:46;;;;;;;36.93;17.30;;;2.50;96.50;;;;;;5025176;28;20056;-88
2024/01/12 01:17:12;;;;;;;34.83;16.63;;;2.50;96.60;;;;;;5024709;28;20489;-88
2024/01/12 01:19:38;;;;;;;35.13;16.00;;;2.50;96.60;;;;;;5025593;28;20047;-90
2024/01/12 01:22:04;;;;;;;35.73;16.70;;;2.50;96.70;;;;;;5023767;28;20017;-88
2024/01/12 01:24:29;;;;;;;34.47;16.80;;;2.60;96.70;;;;;;5025912;28;20053;-88
2024/01/12 01:26:56;;;;;;;35.20;17.43;;;2.50;96.70;;;;;;5023441;28;20030;-89
2024/01/12 01:29:22;;;;;;;35.43;16.37;;;2.50;96.70;;;;;;5025594;28;20057;-89
2024/01/12 01:31:48;;;;;;;34.07;16.27;;;2.50;96.70;;;;;;5024152;28;20155;-89
2024/01/12 01:34:14;;;;;;;34.60;16.10;;;2.50;96.70;;;;;;5024888;28;20029;-88
2024/01/12 01:36:40;;;;;;;37.37;17.27;;;2.50;96.80;;;;;;5025398;28;20026;-89
2024/01/12 01:39:06;;;;;;;41.67;18.10;;;2.50;96.90;;;;;;5007265;28;20032;-91
2024/01/12 01:41:31;;;;;;;37.47;16.87;;;2.50;96.90;;;;;;5025637;28;20025;-90
2024/01/12 01:43:57;;;;;;;29.47;15.37;;;2.60;97.00;;;;;;5041563;28;20500;-89
2024/01/12 01:46:23;;;;;;;29.73;15.67;;;2.60;97.00;;;;;;5025602;28;20025;-90
2024/01/12 01:48:49;;;;;;;36.30;16.53;;;2.50;97.10;;;;;;5024120;28;20524;-89
2024/01/12 01:51:15;;;;;;;36.63;16.97;;;2.50;97.20;;;;;;5024894;28;20013;-89
2024/01/12 01:53:41;;;;;;;34.03;16.23;;;2.60;97.30;;;;;;5025385;28;20056;-90
2024/01/12 01:56:08;;;;;;;40.33;16.23;;;2.60;97.30;;;;;;5023387;28;20029;-89
2024/01/12 01:58:34;;;;;;;33.80;16.20;;;2.60;97.30;;;;;;5025427;28;20029;-91
2024/01/12 02:01:01;;;;;;;38.07;16.17;;;2.60;97.40;;;;;;5022953;28;20029;-88
2024/01/12 02:03:28;;;;;;;34.27;15.27;;;2.60;97.40;;;;;;5025256;28;20071;-88
2024/01/12 02:05:54;;;;;;;35.50;15.50;;;2.60;97.50;;;;;;5023850;28;20022;-90
2024/01/12 02:08:20;;;;;;;28.27;14.80;;;2.60;97.60;;;;;;5025234;28;20049;-92
2024/01/12 02:10:47;;;;;;;33.43;15.60;;;2.70;97.70;;;;;;5025540;28;20052;-89
2024/01/12 02:13:12;;;;;;;31.77;14.77;;;2.70;97.70;;;;;;5028222;28;20472;-88
2024/01/12 02:15:38;;;;;;;31.00;14.60;;;2.70;97.60;;;;;;5026617;28;20026;-90
2024/01/12 02:18:04;;;;;;;33.83;15.80;;;2.70;97.70;;;;;;5023082;28;20040;-89
2024/01/12 02:20:30;;;;;;;26.57;13.80;;;2.70;97.70;;;;;;5025474;28;20060;-92
2024/01/12 02:22:55;;;;;;;30.23;14.07;;;2.70;97.70;;;;;;5023201;28;20021;-88
2024/01/12 02:25:21;;;;;;;30.00;14.47;;;2.70;97.80;;;;;;5024552;28;20064;-88
2024/01/12 02:27:48;;;;;;;29.87;13.10;;;2.70;97.80;;;;;;5024434;28;20069;-89
2024/01/12 02:30:14;;;;;;;29.07;13.53;;;2.70;97.80;;;;;;5023524;28;20040;-90
2024/01/12 02:32:39;;;;;;;30.33;14.27;;;2.70;97.80;;;;;;5042490;28;20085;-88
2024/01/12 02:35:06;;;;;;;31.60;13.43;;;2.70;97.90;;;;;;5022887;28;20445;-90
2024/01/12 02:37:32;;;;;;;26.43;12.17;;;2.70;97.90;;;;;;5025026;28;20037;-87
2024/01/12 02:39:57;;;;;;;25.63;11.23;;;2.60;97.90;;;;;;5022906;28;20022;-89
2024/01/12 02:42:23;;;;;;;25.77;11.10;;;2.70;97.90;;;;;;5024620;28;20032;-88
2024/01/12 02:44:49;;;;;;;32.70;12.67;;;2.70;98.00;;;;;;5023674;28;20024;-89
2024/01/12 02:47:14;;;;;;;27.97;12.37;;;2.70;97.90;;;;;;5023949;28;20072;-89
2024/01/12 02:49:43;;;;;;;28.27;11.57;;;2.80;98.00;;;;;;5024599;28;20089;-88
2024/01/12 02:52:08;;;;;;;25.97;11.93;;;2.80;98.00;;;;;;5022865;28;20025;-89
2024/01/12 02:54:34;;;;;;;26.67;11.70;;;2.80;98.00;;;;;;5024887;28;20041;-88
2024/01/12 02:57:00;;;;;;;25.43;11.43;;;2.70;98.00;;;;;;5022713;28;20014;-89
2024/01/12 02:59:25;;;;;;;25.53;12.23;;;2.70;98.00;;;;;;5024936;28;20022;-87
2024/01/12 03:01:51;;;;;;;26.30;12.40;;;2.70;98.10;;;;;;5023428;28;20056;-87
2024/01/12 03:04:17;;;;;;;23.83;10.23;;;2.70;98.20;;;;;;5023948;28;20052;-87
2024/01/12 03:06:42;;;;;;;26.47;10.67;;;2.70;98.20;;;;;;5025691;28;20053;-88
2024/01/12 03:09:08;;;;;;;28.30;10.70;;;2.80;98.30;;;;;;5026368;28;20465;-87
2024/01/12 03:11:34;;;;;;;25.77;11.00;;;2.80;98.30;;;;;;5028069;28;20465;-86
2024/01/12 03:13:59;;;;;;;27.50;11.43;;;2.80;98.40;;;;;;5025536;28;20036;-88
2024/01/12 03:16:25;;;;;;;25.57;9.63;;;2.80;98.40;;;;;;5027918;28;20033;-87
2024/01/12 03:18:51;;;;;;;27.53;11.37;;;2.80;98.40;;;;;;5026478;28;20105;-87
2024/01/12 03:21:17;;;;;;;21.13;9.93;;;2.80;98.50;;;;;;5026918;28;20018;-89
2024/01/12 03:23:42;;;;;;;27.23;10.27;;;2.80;98.50;;;;;;5027232;28;20079;-88
2024/01/12 03:26:08;;;;;;;27.00;9.77;;;2.90;98.50;;;;;;5026336;28;20026;-88
2024/01/12 03:28:36;;;;;;;26.10;10.10;;;2.80;98.50;;;;;;5027695;28;20009;-89
2024/01/12 03:31:06;;;;;;;24.80;10.07;;;2.90;98.50;;;;;;5025798;28;20095;-88
2024/01/12 03:33:32;;;;;;;21.60;8.67;;;2.90;98.50;;;;;;5027326;28;20022;-89
2024/01/12 03:35:58;;;;;;;21.93;8.80;;;2.90;98.40;;;;;;5025981;28;20085;-89
2024/01/12 03:38:24;;;;;;;22.87;8.20;;;2.90;98.40;;;;;;5026904;28;20017;-88
2024/01/12 03:40:50;;;;;;;23.17;8.43;;;3.00;98.50;;;;;;5027294;28;20025;-88
2024/01/12 03:43:16;;;;;;;24.53;7.80;;;2.90;98.50;;;;;;5026216;28;20489;-88
2024/01/12 03:45:41;;;;;;;23.63;8.50;;;2.90;98.50;;;;;;5027353;28;20101;-88
2024/01/12 03:48:07;;;;;;;26.00;8.27;;;3.00;98.50;;;;;;5043122;28;20068;-88
2024/01/12 03:50:33;;;;;;;24.80;9.00;;;3.00;98.60;;;;;;5027156;28;20457;-88
2024/01/12 03:52:58;;;;;;;20.53;7.63;;;3.00;98.60;;;;;;5025598;28;20030;-88
2024/01/12 03:55:24;;;;;;;18.47;7.33;;;3.00;98.60;;;;;;5027477;28;20014;-88
2024/01/12 03:57:50;;;;;;;15.60;6.43;;;3.00;98.70;;;;;;5026542;28;20469;-88
2024/01/12 04:00:16;;;;;;;23.80;7.60;;;3.00;98.70;;;;;;5025939;28;20022;-89
2024/01/12 04:02:41;;;;;;;24.87;7.60;;;3.10;98.80;;;;;;5026864;28;20018;-89
2024/01/12 04:05:07;;;;;;;22.07;7.00;;;3.10;98.80;;;;;;5024981;28;20018;-88
2024/01/12 04:07:33;;;;;;;18.50;6.27;;;3.10;98.80;;;;;;5026492;28;20037;-87
2024/01/12 04:09:59;;;;;;;19.53;5.80;;;3.10;98.80;;;;;;5025424;28;20025;-87
2024/01/12 04:12:24;;;;;;;19.10;5.47;;;3.20;98.80;;;;;;5026452;28;20017;-87
2024/01/12 04:14:50;;;;;;;18.60;6.50;;;3.20;98.80;;;;;;5025689;28;20037;-87
2024/01/12 04:17:16;;;;;;;17.50;6.37;;;3.20;98.70;;;;;;5025955;28;20374;-88
2024/01/12 04:19:41;;;;;;;16.67;5.43;;;3.20;98.80;;;;;;5026367;28;20017;-87
2024/01/12 04:22:07;;;;;;;19.23;6.37;;;3.20;98.70;;;;;;5025490;28;20466;-87
2024/01/12 04:24:34;;;;;;;16.93;5.30;;;3.20;98.70;;;;;;5026308;28;20090;-86
2024/01/12 04:27:00;;;;;;;18.63;5.87;;;3.20;98.70;;;;;;5018661;28;20030;-87
2024/01/12 04:29:25;;;;;;;18.47;5.47;;;3.20;98.70;;;;;;5026054;28;20151;-88
2024/01/12 04:31:51;;;;;;;22.73;6.77;;;3.20;98.70;;;;;;5042744;28;20053;-87
2024/01/12 04:34:17;;;;;;;21.37;5.70;;;3.20;98.80;;;;;;5025835;28;20026;-88
2024/01/12 04:36:43;;;;;;;16.57;6.33;;;3.20;98.80;;;;;;5025826;28;20017;-88
2024/01/12 04:39:08;;;;;;;18.27;5.00;;;3.10;98.70;;;;;;5024941;28;20119;-89
2024/01/12 04:41:34;;;;;;;16.57;5.13;;;3.20;98.70;;;;;;5026782;28;20378;-89
2024/01/12 04:44:00;;;;;;;18.17;5.83;;;3.20;98.70;;;;;;5024638;28;20053;-90
2024/01/12 04:46:26;;;;;;;23.63;5.90;;;3.20;98.80;;;;;;5026214;28;20033;-89
2024/01/12 04:48:52;;;;;;;17.77;6.43;;;3.20;98.80;;;;;;5025410;28;20356;-88
2024/01/12 04:51:18;;;;;;;18.40;5.87;;;3.20;98.80;;;;;;5043626;28;20021;-91
2024/01/12 04:53:44;;;;;;;18.73;5.87;;;3.20;98.80;;;;;;5026552;28;20089;-89
2024/01/12 04:56:09;;;;;;;22.17;5.63;;;3.20;98.80;;;;;;5024969;28;20030;-89
2024/01/12 04:58:35;;;;;;;18.93;4.93;;;3.20;98.80;;;;;;5026670;28;20044;-90
2024/01/12 05:01:01;;;;;;;15.80;5.50;;;3.20;98.80;;;;;;5024770;28;20393;-89
2024/01/12 05:03:26;;;;;;;19.57;5.10;;;3.30;98.80;;;;;;5026915;28;20022;-88
2024/01/12 05:05:52;;;;;;;15.03;4.73;;;3.20;98.70;;;;;;5028340;28;20135;-87
2024/01/12 05:08:18;;;;;;;22.77;4.67;;;3.30;98.80;;;;;;5027050;28;20041;-88
2024/01/12 05:10:43;;;;;;;19.13;5.80;;;3.30;98.70;;;;;;5025370;28;20024;-88
2024/01/12 05:13:09;;;;;;;16.77;5.60;;;3.20;98.70;;;;;;5025122;28;20030;-89
2024/01/12 05:15:34;;;;;;;23.20;5.77;;;3.20;98.60;;;;;;5025782;28;20021;-90
2024/01/12 05:18:00;;;;;;;13.83;4.57;;;3.30;98.70;;;;;;5024163;28;20075;-90
2024/01/12 05:20:27;;;;;;;14.77;4.23;;;3.30;98.70;;;;;;5025246;28;20026;-87
2024/01/12 05:22:52;;;;;;;13.57;4.37;;;3.30;98.70;;;;;;5041682;28;20516;-87
2024/01/12 05:25:18;;;;;;;21.53;4.87;;;3.30;98.70;;;;;;5025352;28;20021;-87
2024/01/12 05:27:44;;;;;;;16.20;4.73;;;3.30;98.60;;;;;;5024225;28;20048;-87
2024/01/12 05:30:10;;;;;;;17.77;4.73;;;3.30;98.60;;;;;;5023997;28;20103;-89
2024/01/12 05:32:36;;;;;;;18.53;5.07;;;3.30;98.60;;;;;;5024697;28;20021;-88
2024/01/12 05:35:02;;;;;;;15.47;4.60;;;3.30;98.60;;;;;;5023863;28;20033;-88
2024/01/12 05:37:28;;;;;;;17.93;5.23;;;3.30;98.60;;;;;;5025725;28;20018;-88
2024/01/12 05:39:54;;;;;;;19.93;6.37;;;3.30;98.60;;;;;;5023623;28;20045;-89
2024/01/12 05:42:20;;;;;;;19.43;5.97;;;3.30;98.60;;;;;;5025736;28;20619;-89
2024/01/12 05:44:46;;;;;;;16.70;4.90;;;3.30;98.60;;;;;;5025100;28;20049;-90
2024/01/12 05:47:12;;;;;;;11.77;4.13;;;3.30;98.60;;;;;;5025493;28;20029;-89
2024/01/12 05:49:37;;;;;;;17.73;4.90;;;3.30;98.70;;;;;;5025935;28;20035;-90
2024/01/12 05:52:04;;;;;;;14.87;4.30;;;3.20;98.70;;;;;;5025412;28;20067;-90
2024/01/12 05:54:29;;;;;;;12.97;4.90;;;3.30;98.70;;;;;;5044046;28;20080;-89
2024/01/12 05:56:55;;;;;;;23.90;5.10;;;3.20;98.70;;;;;;5024207;28;20029;-90
2024/01/12 05:59:21;;;;;;;15.77;5.27;;;3.30;98.80;;;;;;5025745;28;20437;-90
2024/01/12 06:01:48;;;;;;;16.83;5.40;;;3.30;98.80;;;;;;5024539;28;20053;-88
2024/01/12 06:04:14;;;;;;;14.00;4.77;;;3.30;98.80;;;;;;5025963;28;20523;-89
2024/01/12 06:06:40;;;;;;;19.70;5.60;;;3.30;98.80;;;;;;5017050;28;20034;-89
2024/01/12 06:09:06;;;;;;;22.40;5.13;;;3.30;98.80;;;;;;5033816;28;20037;-95
2024/01/12 06:11:32;;;;;;;20.43;5.27;;;3.30;98.80;;;;;;5013213;28;20025;-91
2024/01/12 06:13:58;;;;;;;13.67;5.93;;;3.30;98.80;;;;;;5025672;28;20082;-92
2024/01/12 06:16:23;;;;;;;18.40;4.97;;;3.30;98.80;;;;;;5042318;28;20036;-88
2024/01/12 06:18:49;;;;;;;15.43;5.27;;;3.30;98.90;;;;;;5022832;28;20021;-86
2024/01/12 06:21:14;;;;;;;15.47;4.40;;;3.30;98.80;;;;;;5024026;28;20105;-86
2024/01/12 06:23:40;;;;;;;16.37;4.83;;;3.30;98.90;;;;;;5041710;28;20030;-86
2024/01/12 06:26:06;;;;;;;13.30;4.43;;;3.30;98.90;;;;;;5022906;28;20018;-86
2024/01/12 06:28:32;;;;;;;12.10;4.63;;;3.30;98.90;;;;;;5022380;28;20010;-86
2024/01/12 06:30:57;;;;;;;17.80;4.90;;;3.40;98.90;;;;;;5022348;28;20053;-86
2024/01/12 06:33:23;;;;;;;16.23;4.77;;;3.30;98.90;;;;;;5023886;28;20033;-86
2024/01/12 06:35:49;;;;;;;13.30;5.47;;;3.30;98.90;;;;;;5022431;28;20033;-86
2024/01/12 06:38:16;;;;;;;13.83;4.33;;;3.30;98.90;;;;;;5024339;28;20545;-86
2024/01/12 06:40:42;;;;;;;21.27;5.10;;;3.30;98.90;;;;;;5023250;28;20018;-86
2024/01/12 06:43:07;;;;;;;15.17;5.77;;;3.30;98.90;;;;;;5027497;28;20025;-86
2024/01/12 06:45:33;;;;;;;15.10;4.47;;;3.30;99.00;;;;;;5027122;28;20029;-86
2024/01/12 06:48:00;;;;;;;12.67;4.37;;;3.30;99.00;;;;;;5026497;28;20112;-86
2024/01/12 06:50:28;;;;;;;15.70;4.87;;;3.30;99.00;;;;;;5027741;28;20029;-86
2024/01/12 06:52:55;;;;;;;17.73;5.50;;;3.30;99.00;;;;;;5031349;28;20040;-86
2024/01/12 06:55:21;;;;;;;17.40;4.43;;;3.30;99.10;;;;;;5055596;28;20067;-87
2024/01/12 06:57:47;;;;;;;11.67;4.60;;;3.30;99.10;;;;;;5054322;28;20030;-86
2024/01/12 07:00:15;;;;;;;18.00;5.27;;;3.40;99.10;;;;;;5035142;28;20025;-86
2024/01/12 07:02:40;;;;;;;14.90;4.77;;;3.30;99.00;;;;;;5037066;28;20058;-86
2024/01/12 07:05:07;;;;;;;14.33;5.50;;;3.30;98.90;;;;;;5036172;28;20052;-86
2024/01/12 07:07:32;;;;;;;17.63;5.10;;;3.30;99.00;;;;;;5054001;28;20042;-87
2024/01/12 07:09:59;;;;;;;12.93;5.07;;;3.30;99.00;;;;;;5036630;28;20021;-86
2024/01/12 07:12:25;;;;;;;21.00;4.80;;;3.30;99.10;;;;;;5037465;28;20021;-86
2024/01/12 07:14:51;;;;;;;16.33;4.67;;;3.30;99.10;;;;;;5035903;28;20049;-86
2024/01/12 07:17:16;;;;;;;13.37;4.43;;;3.30;99.00;;;;;;5035167;28;20017;-85
2024/01/12 07:19:44;;;;;;;13.73;4.53;;;3.30;99.00;;;;;;5026283;28;20052;-85
2024/01/12 07:22:09;;;;;;;13.83;4.50;;;3.30;99.00;;;;;;5043919;28;20080;-85
2024/01/12 07:24:35;;;;;;;14.03;4.70;;;3.30;99.10;;;;;;5027148;28;20021;-85
2024/01/12 07:27:01;;;;;;;17.17;5.43;;;3.30;99.20;;;;;;5024798;28;20029;-85
2024/01/12 07:29:26;;;;;;;15.73;4.80;;;3.30;99.20;;;;;;5031452;28;20030;-85
2024/01/12 07:31:52;;;;;;;12.03;4.33;;;3.30;99.20;;;;;;5026669;28;20492;-84
2024/01/12 07:34:18;;;;;;;15.50;4.50;;;3.40;99.20;;;;;;5029347;28;20029;-86
2024/01/12 07:36:44;;;;;;;13.87;4.20;;;3.30;99.10;;;;;;5037859;28;20029;-85
2024/01/12 07:39:10;;;;;;;11.63;4.20;;;3.30;99.20;;;;;;5045833;28;20029;-83
2024/01/12 07:41:36;;;;;;;16.47;4.73;;;3.40;99.20;;;;;;5046327;28;20013;-83
2024/01/12 07:44:01;;;;;;;11.73;4.10;;;3.40;99.40;;;;;;5044848;28;20021;-83
2024/01/12 07:46:28;;;;;;;15.47;4.47;;;3.40;99.10;;;;;;5047002;28;20044;-82
2024/01/12 07:48:55;;;;;;;18.67;5.77;;;3.40;99.00;;;;;;5064886;28;20021;-82
2024/01/12 07:51:21;;;;;;;16.07;5.53;;;3.40;98.90;;;;;;5046714;28;20120;-83
2024/01/12 07:53:46;;;;;;;17.37;6.63;;;3.40;98.90;;;;;;5045977;28;20020;-83
2024/01/12 07:56:12;;;;;;;15.37;5.60;;;3.40;98.90;;;;;;5064230;28;20056;-83
2024/01/12 07:58:38;;;;;;;16.33;5.53;;;3.40;98.90;;;;;;5049379;28;20063;-83
2024/01/12 08:01:05;;;;;;;11.83;5.13;;;3.40;98.90;;;;;;5046494;28;20519;-83
2024/01/12 08:03:32;;;;;;;11.60;4.87;;;3.40;98.90;;;;;;5064143;28;20059;-83
2024/01/12 08:05:59;;;;;;;15.73;5.33;;;3.40;98.90;;;;;;5063075;28;20020;-83
2024/01/12 08:08:24;;;;;;;20.03;5.67;;;3.40;98.90;;;;;;5063994;28;20033;-83
2024/01/12 08:10:50;;;;;;;14.10;5.67;;;3.40;99.00;;;;;;5045356;28;20025;-83
2024/01/12 08:13:16;;;;;;;14.30;4.70;;;3.40;99.00;;;;;;5044723;28;20029;-83
2024/01/12 08:15:42;;;;;;;12.77;5.40;;;3.40;99.00;;;;;;5063920;28;20028;-84
2024/01/12 08:18:08;;;;;;;18.53;5.77;;;3.40;99.00;;;;;;5044982;28;20025;-82
2024/01/12 08:20:33;;;;;;;11.13;5.10;;;3.40;99.10;;;;;;5063934;28;20072;-82
2024/01/12 08:22:59;;;;;;;20.33;6.10;;;3.40;99.10;;;;;;5062595;28;20069;-83
2024/01/12 08:25:25;;;;;;;13.60;6.20;;;3.50;99.20;;;;;;5045915;28;20032;-83
2024/01/12 08:27:51;;;;;;;18.90;7.80;;;3.50;99.10;;;;;;5059312;28;20072;-84
2024/01/12 08:30:16;;;;;;;14.60;5.77;;;3.50;99.10;;;;;;5034622;28;20094;-84
2024/01/12 08:32:42;;;;;;;14.73;6.07;;;3.50;99.20;;;;;;5033784;28;20041;-84
2024/01/12 08:35:08;;;;;;;15.40;6.07;;;3.50;99.20;;;;;;5034831;28;20017;-84
2024/01/12 08:37:33;;;;;;;16.07;5.73;;;3.50;99.20;;;;;;5030800;28;20349;-84
2024/01/12 08:39:59;;;;;;;13.40;6.13;;;3.50;99.30;;;;;;5034751;28;20056;-84
2024/01/12 08:42:25;;;;;;;14.57;5.73;;;3.60;99.30;;;;;;5049460;28;20029;-84
2024/01/12 08:44:51;;;;;;;16.30;6.10;;;3.60;99.30;;;;;;5034523;28;20028;-84
2024/01/12 08:47:19;;;;;;;15.53;5.77;;;3.60;99.30;;;;;;5025316;28;20059;-84
2024/01/12 08:49:45;;;;;;;13.27;6.10;;;3.70;99.30;;;;;;5022431;28;20041;-84
2024/01/12 08:52:10;;;;;;;15.37;6.37;;;3.60;99.30;;;;;;5024099;28;20017;-84
2024/01/12 08:54:36;;;;;;;14.77;6.30;;;3.60;99.30;;;;;;5025830;28;20018;-84
2024/01/12 08:57:02;;;;;;;20.97;6.40;;;3.60;99.40;;;;;;5024074;28;20025;-86
2024/01/12 08:59:28;;;;;;;17.60;6.83;;;3.60;99.30;;;;;;5043255;28;20029;-86
2024/01/12 09:01:54;;;;;;;17.90;6.13;;;3.70;99.50;;;;;;5046931;28;20104;-86
2024/01/12 09:04:20;;;;;;;14.23;5.50;;;3.70;99.50;;;;;;5028480;28;20029;-86
2024/01/12 09:06:46;;;;;;;19.00;6.70;;;3.70;99.50;;;;;;5050376;28;20060;-87
2024/01/12 09:09:11;;;;;;;14.30;5.07;;;3.70;99.60;;;;;;5034619;28;20021;-86
2024/01/12 09:11:37;;;;;;;16.40;5.57;;;3.70;99.60;;;;;;5032377;28;20017;-87
2024/01/12 09:14:03;;;;;;;13.03;5.33;;;3.70;99.50;;;;;;5019589;28;20064;-85
2024/01/12 09:16:29;;;;;;;13.50;5.03;;;3.70;99.50;;;;;;5021018;28;20032;-86
2024/01/12 09:18:55;;;;;;;14.07;6.63;;;3.70;99.60;;;;;;5023281;28;20030;-86
2024/01/12 09:21:20;;;;;;;15.40;6.13;;;3.70;99.60;;;;;;5024475;28;20492;-84
2024/01/12 09:23:46;;;;;;;15.90;6.13;;;3.80;99.60;;;;;;5022532;28;20029;-84
2024/01/12 09:26:12;;;;;;;17.10;5.93;;;3.70;99.60;;;;;;5022767;28;20544;-85
2024/01/12 09:28:38;;;;;;;15.73;5.77;;;3.80;99.70;;;;;;5023822;28;20045;-84
2024/01/12 09:31:04;;;;;;;17.90;6.33;;;3.80;99.70;;;;;;5023240;28;20041;-83
2024/01/12 09:33:30;;;;;;;14.40;6.90;;;3.80;99.70;;;;;;5023541;28;20013;-84
2024/01/12 09:35:56;;;;;;;12.10;5.63;;;3.90;99.70;;;;;;5022554;28;20718;-83
2024/01/12 09:38:22;;;;;;;17.30;6.13;;;3.80;99.70;;;;;;5024133;28;20049;-84
2024/01/12 09:40:48;;;;;;;16.67;6.77;;;3.90;99.80;;;;;;5022631;28;20022;-84
2024/01/12 09:43:14;;;;;;;21.40;7.50;;;3.90;99.80;;;;;;5024009;28;20029;-84
2024/01/12 09:45:45;;;;;;;18.27;7.30;;;3.90;99.80;;;;;;5024267;28;20028;-84
2024/01/12 09:48:11;;;;;;;19.33;7.57;;;4.00;99.80;;;;;;5022072;28;20132;-84
2024/01/12 09:50:39;;;;;;;18.40;7.60;;;4.00;99.80;;;;;;5024406;28;20344;-84
2024/01/12 09:53:05;;;;;;;19.50;8.47;;;4.00;99.80;;;;;;5022476;28;20092;-84
2024/01/12 09:55:31;;;;;;;21.60;8.23;;;4.10;99.90;;;;;;5020797;28;20037;-84
2024/01/12 09:57:57;;;;;;;27.67;11.43;;;4.10;99.90;;;;;;5022276;28;20035;-84
2024/01/12 10:00:26;;;;;;;20.80;9.47;;;4.10;99.90;;;;;;5024962;28;20022;-84
2024/01/12 10:02:52;;;;;;;17.80;9.40;;;4.10;99.80;;;;;;5038679;28;20465;-84
2024/01/12 10:05:18;;;;;;;25.47;8.97;;;4.20;99.70;;;;;;5023419;28;20021;-84
2024/01/12 10:07:44;;;;;;;22.30;9.97;;;4.20;99.70;;;;;;5041750;28;20036;-84
2024/01/12 10:10:10;;;;;;;26.27;10.90;;;4.20;99.70;;;;;;5022508;28;20032;-84
2024/01/12 10:12:36;;;;;;;20.07;9.40;;;4.20;99.70;;;;;;5024107;28;20013;-85
2024/01/12 10:15:08;;;;;;;22.93;9.23;;;4.20;99.70;;;;;;5022968;28;20057;-85
2024/01/12 10:17:34;;;;;;;18.23;8.37;;;4.20;99.70;;;;;;5026383;28;20021;-84
2024/01/12 10:20:00;;;;;;;21.33;8.77;;;4.30;99.70;;;;;;5026767;28;20124;-85
2024/01/12 10:22:26;;;;;;;15.30;8.13;;;4.30;99.70;;;;;;5026722;28;20032;-84
2024/01/12 10:25:03;;;;;;;18.50;8.73;;;4.30;99.60;;;;;;5026740;28;20033;-84
2024/01/12 10:27:30;;;;;;;20.17;7.97;;;4.30;99.60;;;;;;5024765;28;20124;-85
2024/01/12 10:29:56;;;;;;;16.77;8.20;;;4.30;99.60;;;;;;5026521;28;20057;-85
2024/01/12 10:32:23;;;;;;;15.30;7.67;;;4.30;99.60;;;;;;5027891;28;20031;-84
2024/01/12 10:34:49;;;;;;;18.80;6.63;;;4.30;99.50;;;;;;5027660;28;20036;-84
2024/01/12 10:37:17;;;;;;;17.50;7.20;;;4.30;99.50;;;;;;5027676;28;20029;-85
2024/01/12 10:39:47;;;;;;;13.47;6.17;;;4.30;99.60;;;;;;5027029;28;20032;-84
2024/01/12 10:42:13;;;;;;;16.73;6.00;;;4.40;99.60;;;;;;5028217;28;20034;-85
2024/01/12 10:44:41;;;;;;;14.80;6.30;;;4.30;99.60;;;;;;5026712;28;20060;-85
2024/01/12 10:47:18;;;;;;;12.70;5.57;;;4.40;99.50;;;;;;5027245;28;20029;-85
2024/01/12 10:49:50;;;;;;;13.13;6.13;;;4.40;99.50;;;;;;5025973;28;20030;-85
2024/01/12 10:52:30;;;;;;;16.27;5.63;;;4.40;99.50;;;;;;5026361;28;20049;-85
2024/01/12 10:55:09;;;;;;;19.47;6.20;;;4.40;99.50;;;;;;5026454;28;20093;-85
2024/01/12 10:57:37;;;;;;;16.70;6.10;;;4.40;99.40;;;;;;5026194;28;20029;-84
2024/01/12 11:00:05;;;;;;;17.63;5.63;;;4.40;99.40;;;;;;5007496;28;20512;-85
2024/01/12 11:02:31;;;;;;;16.73;5.47;;;4.40;99.40;;;;;;5024152;28;20113;-86
2024/01/12 11:04:59;;;;;;;15.87;5.13;;;4.50;99.40;;;;;;5023455;28;20094;-85
2024/01/12 11:07:25;;;;;;;12.17;4.43;;;4.50;99.50;;;;;;5023607;28;20034;-85
2024/01/12 11:09:51;;;;;;;9.23;3.97;;;4.50;99.60;;;;;;5006996;28;20026;-85
2024/01/12 11:12:35;;;;;;;9.93;4.40;;;4.60;99.60;;;;;;5036903;28;20048;-84
2024/01/12 11:15:02;;;;;;;15.57;5.20;;;4.60;99.60;;;;;;5027402;28;20040;-83
2024/01/12 11:17:34;;;;;;;16.27;4.50;;;4.60;99.50;;;;;;5027761;28;20125;-84
2024/01/12 11:20:10;;;;;;;11.63;4.07;;;4.60;99.60;;;;;;5028723;28;20029;-86
2024/01/12 11:22:40;;;;;;;14.63;4.57;;;4.70;99.50;;;;;;5026985;28;20022;-84
2024/01/12 11:25:07;;;;;;;15.07;4.40;;;4.70;99.50;;;;;;5028307;28;20047;-83
2024/01/12 11:27:37;;;;;;;16.47;4.87;;;4.70;99.50;;;;;;5025836;28;20025;-86
2024/01/12 11:30:04;;;;;;;16.10;4.53;;;4.70;99.50;;;;;;5026093;28;20060;-87
2024/01/12 11:32:30;;;;;;;12.27;4.40;;;4.70;99.40;;;;;;5026085;28;20021;-85
2024/01/12 11:35:15;;;;;;;13.40;4.23;;;4.80;99.50;;;;;;5026044;28;20094;-85
2024/01/12 11:38:08;;;;;;;12.70;4.07;;;4.80;99.40;;;;;;5015341;28;20032;-85
2024/01/12 11:40:35;;;;;;;16.77;4.33;;;4.80;99.40;;;;;;5024978;28;20025;-86
2024/01/12 11:43:02;;;;;;;14.03;4.63;;;4.80;99.40;;;;;;5026423;28;20345;-87
2024/01/12 11:45:28;;;;;;;13.10;5.13;;;4.80;99.30;;;;;;5025598;28;20045;-86
2024/01/12 11:47:54;;;;;;;13.23;5.10;;;4.80;99.60;;;;;;5043251;28;20085;-85
2024/01/12 11:50:24;;;;;;;17.10;5.00;;;4.80;99.40;;;;;;5024735;28;20041;-84
2024/01/12 11:53:00;;;;;;;8.10;3.97;;;4.80;99.40;;;;;;5005803;28;20655;-84
2024/01/12 11:55:27;;;;;;;14.00;3.70;;;4.80;99.40;;;;;;5007113;28;20041;-84
2024/01/12 11:57:54;;;;;;;17.00;5.07;;;4.90;99.50;;;;;;5007320;28;20057;-82
2024/01/12 12:00:21;;;;;;;13.17;3.80;;;4.90;99.40;;;;;;5019373;28;20029;-84
2024/01/12 12:02:48;;;;;;;14.57;5.07;;;5.00;99.40;;;;;;5016946;28;20029;-83
2024/01/12 12:05:13;;;;;;;8.63;4.10;;;5.00;99.40;;;;;;5023085;28;20033;-85
2024/01/12 12:07:40;;;;;;;16.83;5.13;;;5.00;99.30;;;;;;5024592;28;20029;-85
2024/01/12 12:10:07;;;;;;;11.97;4.53;;;5.00;99.30;;;;;;5024874;28;20443;-84
2024/01/12 12:12:33;;;;;;;13.37;4.80;;;5.00;99.20;;;;;;5026509;28;20021;-85
2024/01/12 12:15:06;;;;;;;17.13;5.20;;;5.00;99.20;;;;;;5025146;28;20483;-85
2024/01/12 12:17:41;;;;;;;12.50;4.57;;;5.00;99.20;;;;;;5025426;28;20049;-85
2024/01/12 12:20:10;;;;;;;15.10;4.13;;;5.00;99.20;;;;;;5025247;28;20409;-88
2024/01/12 12:22:38;;;;;;;16.07;4.80;;;5.10;99.30;;;;;;5025308;28;20021;-87
2024/01/12 12:25:09;;;;;;;14.50;5.27;;;5.10;99.20;;;;;;5026133;28;20036;-83
2024/01/12 12:27:39;;;;;;;13.30;4.97;;;5.20;99.20;;;;;;5010336;28;20092;-81
2024/01/12 12:30:10;;;;;;;11.87;4.50;;;5.20;99.20;;;;;;5005691;28;20104;-88
2024/01/12 12:32:41;;;;;;;12.23;4.90;;;5.20;99.20;;;;;;5004845;28;20112;-83
2024/01/12 12:35:13;;;;;;;13.80;4.53;;;5.30;99.20;;;;;;5005738;28;20065;-83
2024/01/12 12:37:40;;;;;;;9.23;4.40;;;5.30;99.10;;;;;;5005344;28;20476;-81
2024/01/12 12:40:09;;;;;;;14.47;4.73;;;5.30;99.00;;;;;;5004299;28;20030;-82